Time;durP1;ratioP1;P1;durP2;ratioP2;P2;SDS_P1;SDS_P2;PMS_P1;PMS_P2;Temp;Humidity;BMP_temperature;BMP_pressure;BME280_temperature;BME280_humidity;BME280_pressure;Samples;Min_cycle;Max_cycle;Signal;HPM_P1;HPM_P2
2021/03/30 00:00:38;;;;;;;38.90;21.38;;;;;;;6.83;67.73;100881.66;3549983;27;20130;-55
2021/03/30 00:02:20;;;;;;;40.42;22.23;;;;;;;6.82;67.68;100885.94;3551459;27;20083;-55
2021/03/30 00:04:01;;;;;;;39.72;22.00;;;;;;;6.82;67.92;100893.69;3552094;27;20047;-55
2021/03/30 00:05:43;;;;;;;39.90;21.95;;;;;;;6.80;67.79;100887.53;3551633;27;20507;-47
2021/03/30 00:07:25;;;;;;;43.83;21.08;;;;;;;6.80;67.52;100884.06;3553269;27;20466;-47
2021/03/30 00:09:09;;;;;;;37.80;22.33;;;;;;;6.80;67.51;100884.94;3549875;27;20415;-53
2021/03/30 00:10:50;;;;;;;39.00;22.23;;;;;;;6.79;67.47;100880.63;3552003;27;20082;-54
2021/03/30 00:12:31;;;;;;;36.70;21.48;;;;;;;6.79;67.77;100882.28;3551390;27;20050;-55
2021/03/30 00:14:13;;;;;;;39.35;21.80;;;;;;;6.77;67.76;100882.25;3550566;27;20070;-55
2021/03/30 00:15:54;;;;;;;33.72;21.52;;;;;;;6.77;67.72;100887.41;3551767;27;20503;-54
2021/03/30 00:17:36;;;;;;;39.70;21.63;;;;;;;6.76;67.47;100885.63;3549871;27;20074;-55
2021/03/30 00:19:17;;;;;;;35.78;21.05;;;;;;;6.74;67.39;100884.66;3553190;27;20046;-55
2021/03/30 00:20:59;;;;;;;39.47;22.10;;;;;;;6.74;67.65;100886.38;3551708;27;20050;-56
2021/03/30 00:22:40;;;;;;;40.08;21.40;;;;;;;6.73;67.53;100882.00;3552361;27;20472;-54
2021/03/30 00:24:22;;;;;;;43.00;21.75;;;;;;;6.73;67.68;100884.59;3553102;27;20049;-56
2021/03/30 00:26:04;;;;;;;38.55;22.10;;;;;;;6.72;67.43;100882.81;3552014;27;20621;-54
2021/03/30 00:27:45;;;;;;;35.22;20.50;;;;;;;6.69;67.48;100887.00;3552806;27;20058;-55
2021/03/30 00:29:27;;;;;;;39.88;20.67;;;;;;;6.69;67.86;100886.13;3551611;27;20470;-55
2021/03/30 00:31:08;;;;;;;34.90;21.27;;;;;;;6.69;67.79;100883.56;3553278;27;20051;-55
2021/03/30 00:32:49;;;;;;;42.60;20.50;;;;;;;6.68;67.70;100889.50;3549425;27;20500;-55
2021/03/30 00:34:31;;;;;;;44.88;21.30;;;;;;;6.66;67.75;100884.28;3552583;27;20088;-54
2021/03/30 00:36:12;;;;;;;36.35;20.73;;;;;;;6.65;67.69;100886.81;3552472;27;20461;-55
2021/03/30 00:37:53;;;;;;;35.92;21.08;;;;;;;6.64;67.40;100882.44;3549767;27;20047;-55
2021/03/30 00:39:35;;;;;;;43.10;21.27;;;;;;;6.63;67.82;100893.56;3553078;27;20049;-56
2021/03/30 00:41:18;;;;;;;41.63;21.25;;;;;;;6.62;67.78;100887.53;3549403;27;20089;-55
2021/03/30 00:42:59;;;;;;;36.63;20.60;;;;;;;6.62;67.66;100889.22;3553077;27;20102;-55
2021/03/30 00:44:41;;;;;;;41.92;21.27;;;;;;;6.61;67.63;100887.44;3549308;27;20050;-55
2021/03/30 00:46:24;;;;;;;39.65;20.35;;;;;;;6.60;67.16;100886.56;3552744;27;20054;-55
2021/03/30 00:48:06;;;;;;;47.72;20.90;;;;;;;6.60;67.14;100886.56;3550450;27;20043;-55
2021/03/30 00:49:49;;;;;;;40.83;20.17;;;;;;;6.60;67.63;100886.56;3551728;27;20043;-56
2021/03/30 00:51:30;;;;;;;35.38;18.40;;;;;;;6.59;66.77;100884.78;3552710;27;20047;-55
2021/03/30 00:53:12;;;;;;;38.75;19.00;;;;;;;6.58;66.71;100884.75;3549426;27;20078;-55
2021/03/30 00:54:54;;;;;;;34.40;20.15;;;;;;;6.59;66.69;100886.50;3552814;27;20081;-55
2021/03/30 00:56:36;;;;;;;39.65;20.60;;;;;;;6.58;66.73;100889.91;3549295;27;20047;-55
2021/03/30 00:58:18;;;;;;;31.02;19.08;;;;;;;6.58;66.48;100888.19;3551699;27;20533;-56
2021/03/30 01:00:00;;;;;;;40.25;20.08;;;;;;;6.58;66.95;100889.91;3551132;27;20058;-55
2021/03/30 01:01:41;;;;;;;38.50;20.73;;;;;;;6.59;66.41;100889.06;3550360;27;20078;-54
2021/03/30 01:03:23;;;;;;;32.35;20.23;;;;;;;6.58;66.71;100888.19;3551492;27;20046;-55
2021/03/30 01:05:06;;;;;;;37.20;19.77;;;;;;;6.58;66.67;100892.47;3549351;27;20076;-47
2021/03/30 01:06:48;;;;;;;35.23;18.53;;;;;;;6.58;66.01;100887.31;3552827;27;20046;-48
2021/03/30 01:08:40;;;;;;;34.40;18.88;;;;;;;6.56;66.04;100889.81;3549201;27;20085;-48
2021/03/30 01:10:33;;;;;;;55.78;20.00;;;;;;;6.56;66.52;100886.31;3550753;27;20074;-50
2021/03/30 01:12:31;;;;;;;38.50;20.45;;;;;;;6.57;66.42;100890.69;3551933;27;20070;-47
2021/03/30 01:14:36;;;;;;;38.92;19.67;;;;;;;6.56;66.37;100887.25;3547491;27;20097;-47
2021/03/30 01:16:21;;;;;;;37.80;19.58;;;;;;;6.55;66.02;100888.03;3550531;27;20043;-47
2021/03/30 01:18:12;;;;;;;45.72;20.65;;;;;;;6.55;66.35;100885.44;3551832;27;20263;-47
2021/03/30 01:20:14;;;;;;;33.80;19.85;;;;;;;6.55;66.36;100890.59;3549023;27;20141;-48
2021/03/30 01:22:12;;;;;;;35.42;19.65;;;;;;;6.54;66.35;100888.84;3551950;27;20058;-48
2021/03/30 01:24:02;;;;;;;35.53;20.15;;;;;;;6.54;66.59;100895.69;3550879;27;20046;-47
2021/03/30 01:26:01;;;;;;;35.75;19.42;;;;;;;6.50;66.64;100894.66;3548676;27;20065;-47
2021/03/30 01:27:58;;;;;;;35.75;20.10;;;;;;;6.49;66.89;100891.19;3552739;27;20057;-48
2021/03/30 01:29:49;;;;;;;31.73;18.67;;;;;;;6.47;66.52;100890.25;3552573;27;20423;-48
2021/03/30 01:31:33;;;;;;;34.75;17.88;;;;;;;6.46;66.55;100885.88;3548875;27;20046;-48
2021/03/30 01:33:19;;;;;;;38.95;19.85;;;;;;;6.44;66.66;100892.66;3552453;27;20431;-49
2021/03/30 01:35:03;;;;;;;34.35;18.98;;;;;;;6.45;66.32;100889.28;3548958;27;20046;-48
2021/03/30 01:36:46;;;;;;;32.67;18.55;;;;;;;6.42;66.67;100893.41;3550386;27;20042;-47
2021/03/30 01:38:27;;;;;;;34.17;17.88;;;;;;;6.41;66.43;100900.22;3551031;27;20047;-48
2021/03/30 01:40:11;;;;;;;33.80;18.75;;;;;;;6.39;66.51;100896.69;3549488;27;20050;-47
2021/03/30 01:41:53;;;;;;;33.50;18.38;;;;;;;6.39;66.40;100899.28;3538096;28;20047;-48
2021/03/30 01:43:35;;;;;;;44.55;19.23;;;;;;;6.39;66.78;100904.44;3545423;27;20103;-48
2021/03/30 01:45:22;;;;;;;34.15;18.33;;;;;;;6.38;66.81;100899.19;3552276;27;20058;-48
2021/03/30 01:47:04;;;;;;;35.95;18.52;;;;;;;6.36;65.82;100898.22;3549262;27;20080;-47
2021/03/30 01:48:46;;;;;;;31.70;17.77;;;;;;;6.36;65.99;100901.69;3550282;27;20500;-56
2021/03/30 01:50:28;;;;;;;33.80;19.60;;;;;;;6.35;66.25;100896.44;3551038;27;20062;-55
2021/03/30 01:52:14;;;;;;;30.35;18.33;;;;;;;6.33;66.46;100904.13;3548581;27;20085;-55
2021/03/30 01:53:58;;;;;;;35.67;18.15;;;;;;;6.32;66.26;100908.38;3552493;27;20050;-55
2021/03/30 01:55:39;;;;;;;;;;;;;;;6.31;66.37;100905.72;3549156;27;20445;-56
2021/03/30 01:57:27;;;;;;;27.77;17.27;;;;;;;6.28;65.93;100901.31;3551214;27;19934;-56
2021/03/30 01:59:12;;;;;;;28.38;17.77;;;;;;;6.28;66.35;100905.59;3552096;27;20046;-53
2021/03/30 02:00:55;;;;;;;30.45;16.95;;;;;;;6.25;65.21;100898.56;3548832;27;20477;-47
2021/03/30 02:02:37;;;;;;;31.27;17.13;;;;;;;6.25;65.39;100902.84;3552388;27;20101;-47
2021/03/30 02:04:20;;;;;;;28.65;16.48;;;;;;;6.25;65.87;100910.56;3548474;27;20043;-47
2021/03/30 02:06:06;;;;;;;29.38;17.63;;;;;;;6.22;65.93;100908.72;3552131;27;20051;-47
2021/03/30 02:07:52;;;;;;;32.53;16.80;;;;;;;6.19;65.72;100913.72;3549057;27;20047;-48
2021/03/30 02:09:41;;;;;;;31.08;17.02;;;;;;;6.19;65.95;100918.88;3550261;27;20050;-48
2021/03/30 02:11:27;;;;;;;31.42;17.65;;;;;;;6.16;66.23;100915.28;3550744;27;20078;-48
2021/03/30 02:13:12;;;;;;;32.90;17.10;;;;;;;6.13;66.08;100910.81;3547388;27;20096;-48
2021/03/30 02:14:53;;;;;;;33.95;17.48;;;;;;;6.10;66.20;100915.81;3552525;27;20055;-47
2021/03/30 02:16:44;;;;;;;35.53;17.83;;;;;;;6.09;66.66;100919.22;3548623;27;20046;-48
2021/03/30 02:18:29;;;;;;;34.17;18.17;;;;;;;6.06;67.33;100912.19;3551388;27;20135;-47
2021/03/30 02:20:15;;;;;;;32.50;17.60;;;;;;;6.05;67.94;100912.16;3550854;27;20051;-48
2021/03/30 02:22:03;;;;;;;31.80;17.90;;;;;;;6.02;68.07;100915.44;3550277;27;20071;-49
2021/03/30 02:23:44;;;;;;;34.45;19.33;;;;;;;6.01;68.24;100912.75;3552084;27;20096;-47
2021/03/30 02:25:28;;;;;;;34.08;18.70;;;;;;;5.98;68.25;100905.78;3548746;27;20111;-48
2021/03/30 02:27:11;;;;;;;34.30;18.05;;;;;;;5.97;68.57;100913.41;3549641;27;20054;-47
2021/03/30 02:28:57;;;;;;;32.53;17.63;;;;;;;5.95;68.67;100908.19;3552226;27;20042;-48
2021/03/30 02:30:40;;;;;;;37.20;18.75;;;;;;;5.92;68.68;100908.94;3553591;27;20098;-48
2021/03/30 02:32:25;;;;;;;34.25;19.42;;;;;;;5.91;68.40;100907.16;3554655;27;20050;-48
2021/03/30 02:34:07;;;;;;;33.42;17.67;;;;;;;5.89;68.43;100906.19;3553029;27;20530;-47
2021/03/30 02:35:50;;;;;;;31.50;18.17;;;;;;;5.88;67.58;100912.13;3552162;27;20050;-47
2021/03/30 02:37:34;;;;;;;33.55;16.90;;;;;;;5.88;67.58;100913.81;3552898;27;20142;-48
2021/03/30 02:39:15;;;;;;;32.88;18.45;;;;;;;5.88;68.18;100908.66;3553126;27;20491;-47
2021/03/30 02:40:58;;;;;;;34.08;17.38;;;;;;;5.88;67.66;100900.94;3554393;27;20051;-47
2021/03/30 02:42:42;;;;;;;36.20;18.67;;;;;;;5.88;67.77;100909.56;3550836;27;20050;-47
2021/03/30 02:44:24;;;;;;;33.72;18.88;;;;;;;5.88;67.67;100904.41;3553932;27;20074;-49
2021/03/30 02:46:07;;;;;;;36.75;17.25;;;;;;;5.88;67.19;100904.41;3551306;27;20043;-48
2021/03/30 02:47:51;;;;;;;32.90;16.88;;;;;;;5.90;66.77;100913.09;3551304;27;20455;-47
2021/03/30 02:49:32;;;;;;;27.23;16.75;;;;;;;5.92;66.60;100914.06;3554021;27;20058;-47
2021/03/30 02:51:14;;;;;;;29.25;17.42;;;;;;;5.94;66.38;100914.13;3550402;27;20499;-49
2021/03/30 02:52:57;;;;;;;24.80;15.02;;;;;;;5.96;65.97;100911.63;3554309;27;20047;-49
2021/03/30 02:54:39;;;;;;;31.50;18.23;;;;;;;5.96;66.10;100911.63;3550709;27;20410;-48
2021/03/30 02:56:22;;;;;;;29.30;16.63;;;;;;;5.98;66.14;100907.44;3553584;27;20475;-48
2021/03/30 02:58:04;;;;;;;30.17;17.15;;;;;;;5.98;66.42;100916.09;3551311;27;20043;-48
2021/03/30 02:59:48;;;;;;;30.08;15.82;;;;;;;5.99;65.70;100917.84;3553146;27;20071;-48
2021/03/30 03:01:30;;;;;;;;;;;;;;;5.99;65.84;100917.84;3554762;27;20043;-47
2021/03/30 03:03:13;;;;;;;30.02;15.98;;;;;;;6.00;66.01;100922.19;3550476;27;19955;-48
2021/03/30 03:04:55;;;;;;;27.05;16.80;;;;;;;6.02;65.53;100909.41;3554175;27;20047;-48
2021/03/30 03:06:37;;;;;;;29.60;16.30;;;;;;;6.03;65.57;100906.91;3550684;27;20551;-48
2021/03/30 03:08:19;;;;;;;30.67;17.45;;;;;;;6.03;65.72;100914.63;3552137;27;20046;-47
2021/03/30 03:10:03;;;;;;;25.83;14.90;;;;;;;6.04;65.28;100906.06;3552675;27;20055;-47
2021/03/30 03:11:46;;;;;;;23.92;14.73;;;;;;;6.04;64.92;100910.34;3550468;27;20038;-48
2021/03/30 03:13:29;;;;;;;34.38;16.23;;;;;;;6.04;64.94;100908.66;3552845;27;20038;-47
2021/03/30 03:15:14;;;;;;;23.98;15.15;;;;;;;6.04;65.31;100913.81;3550722;27;20103;-47
2021/03/30 03:16:56;;;;;;;24.23;15.50;;;;;;;6.05;64.83;100907.88;3553022;27;20046;-47
2021/03/30 03:18:40;;;;;;;25.70;15.02;;;;;;;6.06;64.91;100916.47;3553575;27;20070;-49
2021/03/30 03:20:24;;;;;;;27.80;16.63;;;;;;;6.06;64.88;100914.78;3551886;27;20075;-48
2021/03/30 03:22:06;;;;;;;29.65;16.27;;;;;;;6.06;65.31;100913.91;3553630;27;20047;-48
2021/03/30 03:23:47;;;;;;;29.60;15.75;;;;;;;6.06;65.15;100914.78;3551644;27;20096;-48
2021/03/30 03:25:28;;;;;;;26.30;15.38;;;;;;;6.06;64.27;100912.19;3553981;27;20392;-48
2021/03/30 03:27:10;;;;;;;30.10;16.52;;;;;;;6.06;64.88;100912.19;3552276;27;20609;-48
2021/03/30 03:28:51;;;;;;;30.85;16.85;;;;;;;6.06;64.66;100912.19;3552247;27;20506;-48
2021/03/30 03:30:32;;;;;;;29.42;17.08;;;;;;;6.07;64.92;100924.28;3554444;27;20437;-48
2021/03/30 03:32:14;;;;;;;27.70;16.17;;;;;;;6.07;64.96;100920.81;3552675;27;20117;-47
2021/03/30 03:34:01;;;;;;;29.48;15.77;;;;;;;6.07;65.18;100913.09;3565998;27;20050;-48
2021/03/30 03:35:58;;;;;;;23.75;14.75;;;;;;;6.07;64.57;100920.81;3554499;27;20070;-48
2021/03/30 03:37:41;;;;;;;26.88;15.23;;;;;;;6.07;64.78;100918.25;3552977;27;20519;-47
2021/03/30 03:39:22;;;;;;;24.75;15.10;;;;;;;6.07;64.25;100928.56;3550766;27;20051;-47
2021/03/30 03:41:06;;;;;;;27.55;14.98;;;;;;;6.06;64.37;100922.50;3549459;27;20108;-47
2021/03/30 03:42:47;;;;;;;25.08;14.45;;;;;;;6.06;64.30;100921.63;3553548;27;20080;-48
2021/03/30 03:44:28;;;;;;;23.95;15.15;;;;;;;6.07;64.01;100921.72;3550286;27;20054;-50
2021/03/30 03:46:14;;;;;;;23.35;15.43;;;;;;;6.08;64.39;100923.50;3553637;27;20050;-48
2021/03/30 03:47:55;;;;;;;27.65;16.30;;;;;;;6.09;64.08;100925.25;3552217;27;20047;-47
2021/03/30 03:49:37;;;;;;;25.85;16.27;;;;;;;6.09;64.21;100927.81;3552192;27;20416;-47
2021/03/30 03:51:19;;;;;;;25.50;15.52;;;;;;;6.10;64.55;100927.03;3552051;27;20069;-55
2021/03/30 03:53:01;;;;;;;27.00;15.52;;;;;;;6.10;64.10;100936.41;3552531;27;20047;-54
2021/03/30 03:54:44;;;;;;;25.50;14.80;;;;;;;6.09;64.39;100932.09;3552525;27;20046;-55
2021/03/30 03:56:30;;;;;;;26.67;15.73;;;;;;;6.10;64.53;100933.84;3550210;27;20047;-55
2021/03/30 03:58:14;;;;;;;24.45;14.38;;;;;;;6.10;64.10;100927.03;3553471;27;20054;-55
2021/03/30 03:59:58;;;;;;;25.75;15.55;;;;;;;6.10;63.69;100939.00;3550219;27;20453;-47
2021/03/30 04:01:46;;;;;;;22.73;12.90;;;;;;;6.10;63.74;100939.00;3552888;27;20042;-55
2021/03/30 04:03:30;;;;;;;28.13;15.00;;;;;;;6.10;63.73;100936.41;3552261;27;20047;-53
2021/03/30 04:05:15;;;;;;;26.75;15.18;;;;;;;6.11;63.71;100936.50;3551240;27;20133;-49
2021/03/30 04:07:02;;;;;;;27.58;15.00;;;;;;;6.12;64.10;100932.25;3553294;27;20139;-47
2021/03/30 04:08:48;;;;;;;26.13;15.35;;;;;;;6.10;63.85;100932.19;3552101;27;20219;-47
2021/03/30 04:10:33;;;;;;;27.67;16.52;;;;;;;6.12;64.16;100934.84;3552060;27;20422;-53
2021/03/30 04:12:18;;;;;;;28.83;14.95;;;;;;;6.12;63.74;100940.00;3553365;27;20115;-55
2021/03/30 04:13:59;;;;;;;;;;;;;;;6.12;64.24;100942.56;3548670;27;20487;-53
2021/03/30 04:15:41;;;;;;;30.13;14.98;;;;;;;6.12;63.80;100938.28;3553532;27;19923;-55
2021/03/30 04:17:22;;;;;;;26.20;14.13;;;;;;;6.12;64.04;100945.13;3551944;27;20043;-55
2021/03/30 04:19:09;;;;;;;30.20;15.13;;;;;;;6.13;63.77;100945.22;3552955;27;20059;-55
2021/03/30 04:20:51;;;;;;;25.85;16.00;;;;;;;6.13;63.71;100949.47;3549955;27;20589;-54
2021/03/30 04:22:32;;;;;;;28.48;16.15;;;;;;;6.13;63.90;100946.88;3550308;27;20070;-55
2021/03/30 04:24:14;;;;;;;29.83;16.27;;;;;;;6.13;64.13;100939.16;3551967;27;20099;-55
2021/03/30 04:25:55;;;;;;;22.15;14.50;;;;;;;6.13;63.60;100947.81;3550669;27;20063;-55
2021/03/30 04:27:36;;;;;;;24.92;15.40;;;;;;;6.14;63.65;100948.69;3553087;27;20556;-55
2021/03/30 04:29:18;;;;;;;24.48;15.15;;;;;;;6.15;63.38;100946.97;3549794;27;20042;-56
2021/03/30 04:30:59;;;;;;;30.73;16.13;;;;;;;6.13;63.67;100950.38;3552523;27;20074;-55
2021/03/30 04:32:40;;;;;;;27.45;15.93;;;;;;;6.16;63.45;100954.78;3550121;27;20043;-55
2021/03/30 04:34:22;;;;;;;26.73;16.20;;;;;;;6.15;63.59;100947.84;3550416;27;20054;-55
2021/03/30 04:36:05;;;;;;;24.77;14.43;;;;;;;6.15;63.70;100950.44;3552336;27;20507;-55
2021/03/30 04:37:46;;;;;;;29.67;15.55;;;;;;;6.16;63.24;100956.50;3549553;27;20053;-56
2021/03/30 04:39:28;;;;;;;25.52;14.90;;;;;;;6.14;62.78;100953.81;3553419;27;20051;-55
2021/03/30 04:41:09;;;;;;;28.73;15.85;;;;;;;6.14;63.16;100958.97;3549480;27;20070;-55
2021/03/30 04:42:50;;;;;;;25.92;14.32;;;;;;;6.13;63.03;100955.53;3550778;27;20051;-55
2021/03/30 04:44:32;;;;;;;30.38;15.35;;;;;;;6.15;63.19;100957.28;3551472;27;20051;-55
2021/03/30 04:46:13;;;;;;;27.88;14.75;;;;;;;6.14;63.42;100961.56;3549909;27;20405;-56
2021/03/30 04:47:54;;;;;;;27.05;14.60;;;;;;;6.13;63.49;100955.53;3552287;27;20513;-55
2021/03/30 04:49:36;;;;;;;28.05;14.05;;;;;;;6.15;62.89;100965.00;3549613;27;20042;-55
2021/03/30 04:51:18;;;;;;;27.13;14.48;;;;;;;6.16;62.78;100966.78;3552689;27;20058;-55
2021/03/30 04:52:59;;;;;;;26.27;15.00;;;;;;;6.17;62.67;100968.53;3549232;27;20042;-54
2021/03/30 04:54:41;;;;;;;27.17;14.98;;;;;;;6.18;62.63;100967.75;3551064;27;20083;-55
2021/03/30 04:56:22;;;;;;;26.98;14.20;;;;;;;6.18;62.49;100962.59;3553920;27;20050;-56
2021/03/30 04:58:04;;;;;;;26.35;14.90;;;;;;;6.19;62.97;100965.25;3549241;27;20079;-55
2021/03/30 04:59:45;;;;;;;27.20;14.43;;;;;;;6.21;62.73;100965.34;3552553;27;20053;-55
2021/03/30 05:01:26;;;;;;;23.63;15.00;;;;;;;6.21;62.13;100960.19;3550324;27;20043;-53
2021/03/30 05:03:08;;;;;;;25.90;14.95;;;;;;;6.23;61.98;100969.75;3553102;27;20051;-54
2021/03/30 05:04:49;;;;;;;24.38;14.02;;;;;;;6.23;62.30;100972.34;3550242;27;20046;-55
2021/03/30 05:06:31;;;;;;;29.73;14.57;;;;;;;6.24;62.13;100965.47;3550894;27;20058;-54
2021/03/30 05:08:13;;;;;;;31.15;15.10;;;;;;;6.25;62.00;100969.84;3550304;27;20062;-54
2021/03/30 05:09:54;;;;;;;24.52;13.48;;;;;;;6.25;62.01;100969.84;3551452;27;20042;-54
2021/03/30 05:11:35;;;;;;;22.23;13.27;;;;;;;6.26;62.40;100963.91;3551731;27;20078;-54
2021/03/30 05:13:17;;;;;;;23.30;13.40;;;;;;;6.27;61.97;100969.09;3547849;27;20075;-52
2021/03/30 05:14:58;;;;;;;21.48;12.82;;;;;;;6.29;62.18;100969.19;3552837;27;20043;-52
2021/03/30 05:16:39;;;;;;;23.02;13.27;;;;;;;6.30;62.23;100971.84;3548956;27;20066;-55
2021/03/30 05:18:21;;;;;;;26.38;14.05;;;;;;;6.32;62.09;100979.66;3551367;27;20050;-54
2021/03/30 05:20:03;;;;;;;22.92;12.95;;;;;;;6.34;61.53;100972.00;3550724;27;20392;-52
2021/03/30 05:21:45;;;;;;;23.35;12.82;;;;;;;6.36;61.44;100973.84;3550461;27;20039;-54
2021/03/30 05:23:27;;;;;;;32.10;14.98;;;;;;;6.35;61.49;100982.41;3565288;27;20042;-54
2021/03/30 05:25:09;;;;;;;22.88;12.98;;;;;;;6.39;61.45;100973.13;3553613;27;20046;-53
2021/03/30 05:26:51;;;;;;;21.80;13.52;;;;;;;6.40;61.20;100977.47;3552431;27;20051;-51
2021/03/30 05:28:32;;;;;;;24.95;13.93;;;;;;;6.41;61.35;100974.09;3551162;27;20081;-52
2021/03/30 05:30:14;;;;;;;26.95;14.13;;;;;;;6.42;61.43;100970.72;3551130;27;20046;-52
2021/03/30 05:31:56;;;;;;;32.47;14.63;;;;;;;6.46;61.76;100978.69;3549763;27;20422;-54
2021/03/30 05:33:37;;;;;;;26.75;14.05;;;;;;;6.48;62.08;100977.06;3549110;27;20093;-52
2021/03/30 05:35:18;;;;;;;24.17;14.00;;;;;;;6.50;61.89;100975.44;3551390;27;20102;-54
2021/03/30 05:37:00;;;;;;;25.42;13.55;;;;;;;6.53;61.26;100982.47;3548727;27;20104;-53
2021/03/30 05:38:42;;;;;;;29.30;13.93;;;;;;;6.54;60.75;100978.19;3552662;27;20115;-52
2021/03/30 05:40:23;;;;;;;24.27;14.30;;;;;;;6.57;60.67;100981.81;3548858;27;20043;-51
2021/03/30 05:42:06;;;;;;;28.27;14.90;;;;;;;6.59;61.05;100987.91;3551065;27;20057;-54
2021/03/30 05:43:47;;;;;;;25.17;14.48;;;;;;;6.61;60.71;100986.31;3550812;27;20049;-54
2021/03/30 05:45:30;;;;;;;28.17;14.25;;;;;;;6.64;60.77;100983.88;3549064;27;20046;-55
2021/03/30 05:47:14;;;;;;;31.13;15.40;;;;;;;6.66;60.92;100979.69;3551347;27;20476;-55
2021/03/30 05:48:55;;;;;;;25.88;14.05;;;;;;;6.68;60.43;100974.59;3550960;27;20070;-55
2021/03/30 05:50:37;;;;;;;21.67;12.98;;;;;;;6.69;60.51;100979.84;3552679;27;20051;-55
2021/03/30 05:52:26;;;;;;;23.35;14.82;;;;;;;6.72;60.00;100978.22;3548771;27;20050;-55
2021/03/30 05:54:08;;;;;;;23.73;14.27;;;;;;;6.75;59.82;100979.25;3550258;27;20503;-53
2021/03/30 05:55:54;;;;;;;26.20;13.77;;;;;;;6.76;60.04;100982.75;3551253;27;20055;-55
2021/03/30 05:57:37;;;;;;;25.17;14.10;;;;;;;6.78;59.82;100982.00;3548662;27;20054;-54
2021/03/30 05:59:20;;;;;;;27.25;14.07;;;;;;;6.81;60.07;100979.59;3552495;27;20054;-54
2021/03/30 06:01:04;;;;;;;23.45;14.20;;;;;;;6.83;59.75;100983.13;3548443;27;20051;-55
2021/03/30 06:02:49;;;;;;;21.10;13.32;;;;;;;6.86;59.89;100983.28;3551501;27;20046;-55
2021/03/30 06:04:31;;;;;;;21.40;12.80;;;;;;;6.91;59.65;100987.78;3552613;27;20506;-51
2021/03/30 06:06:13;;;;;;;25.88;13.45;;;;;;;6.94;59.57;100983.66;3551113;27;20042;-53
2021/03/30 06:07:57;;;;;;;19.27;12.13;;;;;;;6.98;60.09;100979.56;3554574;27;20079;-49
2021/03/30 06:09:41;;;;;;;23.17;12.82;;;;;;;7.00;59.62;100980.50;3551177;27;20131;-48
2021/03/30 06:11:24;;;;;;;26.17;13.82;;;;;;;7.04;59.13;100982.44;3554906;27;20062;-50
2021/03/30 06:13:06;;;;;;;26.08;13.48;;;;;;;7.08;59.21;100981.78;3550757;27;20074;-47
2021/03/30 06:14:48;;;;;;;22.60;12.95;;;;;;;7.11;59.48;100979.34;3552858;27;24661;-48
2021/03/30 06:16:34;;;;;;;27.08;13.75;;;;;;;7.15;59.04;100981.28;3553324;27;20056;-48
2021/03/30 06:18:18;;;;;;;23.55;13.48;;;;;;;7.18;58.93;100980.56;3551292;27;20419;-54
2021/03/30 06:19:59;;;;;;;;;;;;;;;7.21;58.64;100980.69;3540639;28;20142;-54
2021/03/30 06:21:42;;;;;;;26.85;12.27;;;;;;;7.22;58.54;100979.88;3550177;27;19923;-53
2021/03/30 06:23:27;;;;;;;21.23;11.75;;;;;;;7.27;58.34;100975.81;3554202;27;20046;-54
2021/03/30 06:25:09;;;;;;;22.15;12.70;;;;;;;7.31;57.53;100979.44;3551429;27;20054;-54
2021/03/30 06:26:54;;;;;;;23.85;12.45;;;;;;;7.35;57.25;100978.75;3551722;27;20054;-55
2021/03/30 06:28:41;;;;;;;23.75;12.43;;;;;;;7.39;57.32;100978.13;3553369;27;20450;-54
2021/03/30 06:30:28;;;;;;;20.33;12.07;;;;;;;7.45;57.79;100979.28;3550934;27;20054;-52
2021/03/30 06:32:11;;;;;;;22.85;12.50;;;;;;;7.51;56.98;100976.13;3554491;27;20046;-54
2021/03/30 06:33:55;;;;;;;21.40;12.07;;;;;;;7.57;55.96;100981.56;3552016;27;20061;-52
2021/03/30 06:35:36;;;;;;;;;;;;;;;7.62;55.17;100989.53;3552870;27;20539;-54
2021/03/30 06:37:29;;;;;;;21.60;12.00;;;;;;;7.64;56.04;100983.59;3553034;27;19930;-54
2021/03/30 06:39:11;;;;;;;22.95;12.25;;;;;;;7.70;55.11;100982.13;3550872;27;20086;-52
2021/03/30 06:40:53;;;;;;;22.75;12.27;;;;;;;7.77;55.40;100982.47;3554362;27;20050;-54
2021/03/30 06:42:39;;;;;;;25.40;13.13;;;;;;;7.86;54.77;100992.34;3550766;27;20568;-54
2021/03/30 06:44:25;;;;;;;30.35;13.73;;;;;;;7.94;54.11;100985.84;3553567;27;20047;-51
2021/03/30 06:46:08;;;;;;;17.80;11.13;;;;;;;8.04;54.20;100992.28;3551669;27;20057;-54
2021/03/30 06:47:52;;;;;;;23.02;12.93;;;;;;;8.09;52.37;100990.78;3552708;27;20042;-53
2021/03/30 06:49:36;;;;;;;22.65;12.57;;;;;;;8.14;52.65;100986.72;3553985;27;20042;-52
2021/03/30 06:51:18;;;;;;;;;;;;;;;8.24;53.35;101000.97;3551167;27;20043;-52
2021/03/30 06:53:09;;;;;;;21.60;11.75;;;;;;;8.32;52.91;100990.94;3554355;27;19958;-54
2021/03/30 06:54:54;;;;;;;20.98;11.93;;;;;;;8.38;52.34;100999.84;3551065;27;20039;-53
2021/03/30 06:56:46;;;;;;;23.73;12.55;;;;;;;8.43;51.65;100994.00;3550953;27;20043;-54
2021/03/30 06:58:27;;;;;;;23.48;13.00;;;;;;;8.51;52.03;101001.28;3553767;27;20057;-53
2021/03/30 07:00:14;;;;;;;21.85;12.15;;;;;;;8.69;52.45;101000.28;3553054;27;20038;-54
2021/03/30 07:01:56;;;;;;;24.02;13.43;;;;;;;8.80;50.52;100999.06;3554006;27;20051;-50
2021/03/30 07:03:38;;;;;;;20.70;12.75;;;;;;;8.95;51.58;101007.44;3549960;27;20504;-55
2021/03/30 07:05:27;;;;;;;23.38;11.80;;;;;;;9.05;48.20;101007.84;3553192;27;20066;-54
2021/03/30 07:07:09;;;;;;;23.02;10.80;;;;;;;9.12;50.25;101013.34;3553139;27;20051;-54
2021/03/30 07:08:51;;;;;;;17.70;9.40;;;;;;;9.14;49.72;101013.41;3550567;27;20039;-51
2021/03/30 07:10:35;;;;;;;23.00;12.38;;;;;;;9.07;47.90;101008.81;3554621;27;20065;-54
2021/03/30 07:12:20;;;;;;;20.85;10.98;;;;;;;9.01;47.40;101005.94;3554104;27;20050;-47
2021/03/30 07:14:02;;;;;;;26.70;11.68;;;;;;;8.94;48.06;101015.16;3551192;27;20074;-48
2021/03/30 07:15:44;;;;;;;24.30;12.20;;;;;;;8.94;48.50;101018.66;3552044;27;20047;-48
2021/03/30 07:17:29;;;;;;;21.23;12.05;;;;;;;9.00;49.66;101017.13;3553140;27;20188;-48
2021/03/30 07:19:12;;;;;;;20.52;11.90;;;;;;;9.00;49.25;101014.53;3552992;27;20078;-47
2021/03/30 07:21:00;;;;;;;22.75;11.60;;;;;;;9.03;49.37;101012.06;3550452;27;20135;-48
2021/03/30 07:22:45;;;;;;;17.10;10.57;;;;;;;9.06;50.01;101007.03;3554272;27;20051;-47
2021/03/30 07:24:34;;;;;;;18.80;10.50;;;;;;;9.14;49.88;101018.59;3553575;27;20055;-53
2021/03/30 07:26:23;;;;;;;20.42;10.52;;;;;;;9.20;49.36;101013.66;3552830;27;20420;-48
2021/03/30 07:28:09;;;;;;;19.77;10.65;;;;;;;9.24;49.45;101015.56;3553073;27;20046;-48
2021/03/30 07:29:51;;;;;;;24.27;12.07;;;;;;;9.30;48.74;101012.34;3552471;27;20415;-47
2021/03/30 07:31:40;;;;;;;20.00;10.80;;;;;;;9.44;48.03;101016.38;3553777;27;20517;-49
2021/03/30 07:33:30;;;;;;;21.17;10.82;;;;;;;9.65;47.43;101021.53;3551872;27;20057;-47
2021/03/30 07:35:15;;;;;;;25.33;12.38;;;;;;;9.71;46.74;101019.16;3551687;27;20100;-49
2021/03/30 07:37:02;;;;;;;22.90;11.80;;;;;;;9.68;45.98;101018.16;3566086;27;20058;-47
2021/03/30 07:38:46;;;;;;;22.13;11.77;;;;;;;9.66;48.37;101019.81;3554444;27;20046;-48
2021/03/30 07:40:27;;;;;;;25.60;12.00;;;;;;;9.77;47.43;101021.13;3553782;27;20046;-47
2021/03/30 07:42:10;;;;;;;22.25;10.82;;;;;;;9.94;45.88;101023.47;3550034;27;20078;-48
2021/03/30 07:43:52;;;;;;;27.43;13.03;;;;;;;9.99;46.44;101028.00;3551591;27;20054;-48
2021/03/30 07:45:38;;;;;;;16.75;11.55;;;;;;;10.14;45.93;101032.00;3552197;27;20050;-48
2021/03/30 07:47:20;;;;;;;22.95;12.52;;;;;;;10.27;45.65;101016.06;3550562;27;20050;-48
2021/03/30 07:49:03;;;;;;;17.98;10.82;;;;;;;10.45;46.34;101021.03;3553644;27;20415;-49
2021/03/30 07:50:53;;;;;;;19.08;11.02;;;;;;;10.65;45.17;101014.88;3551003;27;20091;-47
2021/03/30 07:52:40;;;;;;;20.52;11.45;;;;;;;10.88;43.82;101025.13;3552793;27;20119;-48
2021/03/30 07:54:24;;;;;;;18.40;9.98;;;;;;;11.05;43.23;101017.94;3553502;27;20472;-48
2021/03/30 07:56:06;;;;;;;17.20;9.63;;;;;;;11.01;40.05;101022.13;3550348;27;20107;-47
2021/03/30 07:58:09;;;;;;;18.70;9.77;;;;;;;11.05;42.36;101018.81;3553217;27;20050;-49